Briefing drone pour Bonneville

Rechercher une autre localisation

Conditions de vol :


Nous sommes le : Vendredi 22 octobre 2021
Il est 00:42 UTC (02:42 LT)

Lever de soleil : 05:34 UTC (07:34 LT)
Coucher de soleil : 17:02 UTC (19:02 LT)

Météo

L'essentiel des conditions de vol

VIGILANCE MÉTÉO FRANCE - Haute-Savoie (74)
Pas de vigilances particulieres
CARTE TEMSI
CARTES DES FRONTS
METAR de LFLP
LFLP 220030Z AUTO 07006KT 9999 BKN056 OVC066 09/07 Q1019

Date d'émission: 22/10/2021
Heure d'émission: 00:30 UTC
Vent: 070° pour 6 KT (11 km/h)
Visibilité horizontale: > 10 km
Plafond :
- Nuages morcelés à 5600ft (1707m)
- Couvert à 6600ft (2012m)
Température: 9 °C
Point de rosée: 7 °C
Humidité: 87%
Pression (QNH): 1019 hPa
TAF de LFLP
AMD LFLP 211915Z 2119/2215 CNL

Conditions prévues :

Heure d'émission : Bulletin éffectué le 21 à 19:00 UTC
Prévision : Valide du 21 a 19:00 UTC au 22 a 15:00 UTC
Nuages : à 0ft (0 m)
WEBCAM POUR BONNEVILLE

Réglementation

Voler en sécurité

CARTES AERONAUTIQUE 1/500.000
CARTES VAC (LFLP)
SUP AIP




Chargement des AIP...
NOTAM (BONNEVILLE + Terrain à proximité / FIR )




Chargement des NOTAMS...
CONTACT PREFECTURE 74


Avertissement : Les données mises à disposition sont indicatives. Oxygène Drone ne pourra être tenu responsable de dégâts causés aux biens et aux personnes.